sensor_id;sensor_type;location;lat;lon;timestamp;P1;durP1;ratioP1;P2;durP2;ratioP2
4268;SDS011;2148;48.554;7.834;2024-03-02T00:00:08;4.77;;;4.37;;
4268;SDS011;2148;48.554;7.834;2024-03-02T00:02:48;4.70;;;4.30;;
4268;SDS011;2148;48.554;7.834;2024-03-02T00:05:15;4.03;;;3.73;;
4268;SDS011;2148;48.554;7.834;2024-03-02T00:07:42;4.97;;;4.20;;
4268;SDS011;2148;48.554;7.834;2024-03-02T00:10:08;4.70;;;4.30;;
4268;SDS011;2148;48.554;7.834;2024-03-02T00:12:38;4.73;;;4.33;;
4268;SDS011;2148;48.554;7.834;2024-03-02T00:15:47;4.63;;;4.23;;
4268;SDS011;2148;48.554;7.834;2024-03-02T00:18:12;5.03;;;4.33;;
4268;SDS011;2148;48.554;7.834;2024-03-02T00:20:39;4.77;;;4.30;;
4268;SDS011;2148;48.554;7.834;2024-03-02T00:23:06;4.90;;;4.20;;
4268;SDS011;2148;48.554;7.834;2024-03-02T00:25:38;4.67;;;4.27;;
4268;SDS011;2148;48.554;7.834;2024-03-02T00:28:05;4.47;;;4.07;;
4268;SDS011;2148;48.554;7.834;2024-03-02T00:30:55;4.60;;;4.20;;
4268;SDS011;2148;48.554;7.834;2024-03-02T00:33:26;4.57;;;4.10;;
4268;SDS011;2148;48.554;7.834;2024-03-02T00:35:52;5.43;;;4.40;;
4268;SDS011;2148;48.554;7.834;2024-03-02T00:38:18;4.30;;;4.00;;
4268;SDS011;2148;48.554;7.834;2024-03-02T00:40:44;4.73;;;4.20;;
4268;SDS011;2148;48.554;7.834;2024-03-02T00:43:26;5.23;;;4.10;;
4268;SDS011;2148;48.554;7.834;2024-03-02T00:46:03;4.30;;;3.90;;
4268;SDS011;2148;48.554;7.834;2024-03-02T00:48:28;4.50;;;4.10;;
4268;SDS011;2148;48.554;7.834;2024-03-02T00:50:56;4.60;;;4.20;;
4268;SDS011;2148;48.554;7.834;2024-03-02T00:53:22;4.53;;;4.13;;
4268;SDS011;2148;48.554;7.834;2024-03-02T00:55:52;5.00;;;4.57;;
4268;SDS011;2148;48.554;7.834;2024-03-02T00:58:17;4.13;;;3.73;;
4268;SDS011;2148;48.554;7.834;2024-03-02T01:00:43;4.27;;;3.63;;
4268;SDS011;2148;48.554;7.834;2024-03-02T01:03:08;4.50;;;3.93;;
4268;SDS011;2148;48.554;7.834;2024-03-02T01:05:35;3.80;;;3.50;;
4268;SDS011;2148;48.554;7.834;2024-03-02T01:08:01;4.50;;;3.67;;
4268;SDS011;2148;48.554;7.834;2024-03-02T01:10:26;4.70;;;4.20;;
4268;SDS011;2148;48.554;7.834;2024-03-02T01:12:51;3.83;;;3.40;;
4268;SDS011;2148;48.554;7.834;2024-03-02T01:15:16;3.70;;;3.40;;
4268;SDS011;2148;48.554;7.834;2024-03-02T01:17:42;4.30;;;3.63;;
4268;SDS011;2148;48.554;7.834;2024-03-02T01:20:10;4.07;;;3.67;;
4268;SDS011;2148;48.554;7.834;2024-03-02T01:22:35;4.70;;;3.40;;
4268;SDS011;2148;48.554;7.834;2024-03-02T01:25:01;4.13;;;3.70;;
4268;SDS011;2148;48.554;7.834;2024-03-02T01:27:27;4.23;;;3.77;;
4268;SDS011;2148;48.554;7.834;2024-03-02T01:29:52;3.87;;;3.40;;
4268;SDS011;2148;48.554;7.834;2024-03-02T01:32:17;4.40;;;3.97;;
4268;SDS011;2148;48.554;7.834;2024-03-02T01:34:43;4.33;;;3.93;;
4268;SDS011;2148;48.554;7.834;2024-03-02T01:37:08;4.83;;;4.07;;
4268;SDS011;2148;48.554;7.834;2024-03-02T01:39:33;4.37;;;3.97;;
4268;SDS011;2148;48.554;7.834;2024-03-02T01:41:58;4.37;;;3.97;;
4268;SDS011;2148;48.554;7.834;2024-03-02T01:44:24;4.27;;;3.93;;
4268;SDS011;2148;48.554;7.834;2024-03-02T01:46:49;4.23;;;3.83;;
4268;SDS011;2148;48.554;7.834;2024-03-02T01:49:15;4.10;;;3.70;;
4268;SDS011;2148;48.554;7.834;2024-03-02T01:51:41;4.23;;;3.63;;
4268;SDS011;2148;48.554;7.834;2024-03-02T01:54:06;4.00;;;3.53;;
4268;SDS011;2148;48.554;7.834;2024-03-02T01:56:31;3.50;;;3.20;;
4268;SDS011;2148;48.554;7.834;2024-03-02T01:58:56;4.07;;;3.23;;
4268;SDS011;2148;48.554;7.834;2024-03-02T02:01:21;3.67;;;3.30;;
4268;SDS011;2148;48.554;7.834;2024-03-02T02:03:47;4.10;;;3.30;;
4268;SDS011;2148;48.554;7.834;2024-03-02T02:06:12;3.70;;;3.40;;
4268;SDS011;2148;48.554;7.834;2024-03-02T02:08:37;3.83;;;3.43;;
4268;SDS011;2148;48.554;7.834;2024-03-02T02:11:03;5.57;;;3.67;;
4268;SDS011;2148;48.554;7.834;2024-03-02T02:13:28;3.57;;;3.27;;
4268;SDS011;2148;48.554;7.834;2024-03-02T02:15:53;3.40;;;3.10;;
4268;SDS011;2148;48.554;7.834;2024-03-02T02:18:18;3.63;;;3.33;;
4268;SDS011;2148;48.554;7.834;2024-03-02T02:20:44;3.87;;;3.37;;
4268;SDS011;2148;48.554;7.834;2024-03-02T02:23:09;3.50;;;3.20;;
4268;SDS011;2148;48.554;7.834;2024-03-02T02:25:34;3.60;;;3.30;;
4268;SDS011;2148;48.554;7.834;2024-03-02T02:28:00;3.43;;;3.13;;
4268;SDS011;2148;48.554;7.834;2024-03-02T02:30:29;3.70;;;3.40;;
4268;SDS011;2148;48.554;7.834;2024-03-02T02:32:55;4.97;;;3.27;;
4268;SDS011;2148;48.554;7.834;2024-03-02T02:35:21;3.50;;;3.20;;
4268;SDS011;2148;48.554;7.834;2024-03-02T02:37:47;3.77;;;3.33;;
4268;SDS011;2148;48.554;7.834;2024-03-02T02:40:13;3.50;;;3.20;;
4268;SDS011;2148;48.554;7.834;2024-03-02T02:42:38;3.93;;;3.17;;
4268;SDS011;2148;48.554;7.834;2024-03-02T02:45:04;3.83;;;3.53;;
4268;SDS011;2148;48.554;7.834;2024-03-02T02:47:30;4.70;;;3.37;;
4268;SDS011;2148;48.554;7.834;2024-03-02T02:49:55;3.60;;;3.30;;
4268;SDS011;2148;48.554;7.834;2024-03-02T02:52:21;4.23;;;3.33;;
4268;SDS011;2148;48.554;7.834;2024-03-02T02:54:46;4.43;;;3.70;;
4268;SDS011;2148;48.554;7.834;2024-03-02T02:57:11;3.87;;;3.53;;
4268;SDS011;2148;48.554;7.834;2024-03-02T02:59:37;3.63;;;3.10;;
4268;SDS011;2148;48.554;7.834;2024-03-02T03:02:02;3.57;;;3.27;;
4268;SDS011;2148;48.554;7.834;2024-03-02T03:04:27;3.50;;;3.20;;
4268;SDS011;2148;48.554;7.834;2024-03-02T03:06:52;3.50;;;3.10;;
4268;SDS011;2148;48.554;7.834;2024-03-02T03:09:18;3.43;;;3.13;;
4268;SDS011;2148;48.554;7.834;2024-03-02T03:11:43;3.33;;;3.03;;
4268;SDS011;2148;48.554;7.834;2024-03-02T03:14:08;3.30;;;3.00;;
4268;SDS011;2148;48.554;7.834;2024-03-02T03:16:34;4.50;;;3.47;;
4268;SDS011;2148;48.554;7.834;2024-03-02T03:18:59;3.47;;;3.17;;
4268;SDS011;2148;48.554;7.834;2024-03-02T03:21:24;4.43;;;3.27;;
4268;SDS011;2148;48.554;7.834;2024-03-02T03:23:49;3.83;;;3.53;;
4268;SDS011;2148;48.554;7.834;2024-03-02T03:26:15;3.60;;;3.30;;
4268;SDS011;2148;48.554;7.834;2024-03-02T03:28:40;3.17;;;2.87;;
4268;SDS011;2148;48.554;7.834;2024-03-02T03:31:05;3.20;;;3.00;;
4268;SDS011;2148;48.554;7.834;2024-03-02T03:33:31;3.77;;;3.43;;
4268;SDS011;2148;48.554;7.834;2024-03-02T03:35:56;3.40;;;3.10;;
4268;SDS011;2148;48.554;7.834;2024-03-02T03:38:21;3.27;;;2.97;;
4268;SDS011;2148;48.554;7.834;2024-03-02T03:40:46;3.17;;;2.97;;
4268;SDS011;2148;48.554;7.834;2024-03-02T03:43:12;4.47;;;3.33;;
4268;SDS011;2148;48.554;7.834;2024-03-02T03:45:38;3.73;;;3.30;;
4268;SDS011;2148;48.554;7.834;2024-03-02T03:48:03;4.40;;;3.70;;
4268;SDS011;2148;48.554;7.834;2024-03-02T03:50:28;3.50;;;3.20;;
4268;SDS011;2148;48.554;7.834;2024-03-02T03:52:54;3.67;;;3.30;;
4268;SDS011;2148;48.554;7.834;2024-03-02T03:55:19;3.33;;;3.03;;
4268;SDS011;2148;48.554;7.834;2024-03-02T03:57:44;3.30;;;2.80;;
4268;SDS011;2148;48.554;7.834;2024-03-02T04:00:09;3.33;;;3.03;;
4268;SDS011;2148;48.554;7.834;2024-03-02T04:02:35;4.00;;;3.70;;
4268;SDS011;2148;48.554;7.834;2024-03-02T04:05:01;3.73;;;3.43;;
4268;SDS011;2148;48.554;7.834;2024-03-02T04:07:29;3.73;;;3.00;;
4268;SDS011;2148;48.554;7.834;2024-03-02T04:09:55;3.50;;;3.20;;
4268;SDS011;2148;48.554;7.834;2024-03-02T04:12:20;3.30;;;3.00;;
4268;SDS011;2148;48.554;7.834;2024-03-02T04:14:45;3.73;;;3.00;;
4268;SDS011;2148;48.554;7.834;2024-03-02T04:17:10;2.90;;;2.60;;
4268;SDS011;2148;48.554;7.834;2024-03-02T04:19:36;2.93;;;2.70;;
4268;SDS011;2148;48.554;7.834;2024-03-02T04:22:01;3.30;;;3.03;;
4268;SDS011;2148;48.554;7.834;2024-03-02T04:24:26;4.03;;;3.17;;
4268;SDS011;2148;48.554;7.834;2024-03-02T04:26:51;3.10;;;2.80;;
4268;SDS011;2148;48.554;7.834;2024-03-02T04:29:17;3.40;;;3.10;;
4268;SDS011;2148;48.554;7.834;2024-03-02T04:31:42;3.20;;;2.90;;
4268;SDS011;2148;48.554;7.834;2024-03-02T04:34:07;3.43;;;3.13;;
4268;SDS011;2148;48.554;7.834;2024-03-02T04:36:33;3.37;;;3.07;;
4268;SDS011;2148;48.554;7.834;2024-03-02T04:38:58;3.20;;;2.90;;
4268;SDS011;2148;48.554;7.834;2024-03-02T04:41:23;3.47;;;2.77;;
4268;SDS011;2148;48.554;7.834;2024-03-02T04:43:48;3.07;;;2.87;;
4268;SDS011;2148;48.554;7.834;2024-03-02T04:46:13;3.43;;;3.13;;
4268;SDS011;2148;48.554;7.834;2024-03-02T04:48:39;3.30;;;2.97;;
4268;SDS011;2148;48.554;7.834;2024-03-02T04:51:04;3.57;;;3.27;;
4268;SDS011;2148;48.554;7.834;2024-03-02T04:53:29;3.23;;;2.93;;
4268;SDS011;2148;48.554;7.834;2024-03-02T04:55:54;3.43;;;2.93;;
4268;SDS011;2148;48.554;7.834;2024-03-02T04:58:20;3.43;;;3.13;;
4268;SDS011;2148;48.554;7.834;2024-03-02T05:00:45;3.43;;;2.80;;
4268;SDS011;2148;48.554;7.834;2024-03-02T05:03:11;2.97;;;2.70;;
4268;SDS011;2148;48.554;7.834;2024-03-02T05:05:37;2.70;;;2.50;;
4268;SDS011;2148;48.554;7.834;2024-03-02T05:08:03;3.20;;;3.00;;
4268;SDS011;2148;48.554;7.834;2024-03-02T05:10:29;3.03;;;2.73;;
4268;SDS011;2148;48.554;7.834;2024-03-02T05:12:54;3.40;;;3.00;;
4268;SDS011;2148;48.554;7.834;2024-03-02T05:15:23;3.10;;;2.70;;
4268;SDS011;2148;48.554;7.834;2024-03-02T05:17:49;3.83;;;3.20;;
4268;SDS011;2148;48.554;7.834;2024-03-02T05:20:14;3.20;;;2.90;;
4268;SDS011;2148;48.554;7.834;2024-03-02T05:22:39;3.30;;;3.00;;
4268;SDS011;2148;48.554;7.834;2024-03-02T05:25:05;2.83;;;2.60;;
4268;SDS011;2148;48.554;7.834;2024-03-02T05:27:31;3.17;;;2.90;;
4268;SDS011;2148;48.554;7.834;2024-03-02T05:29:59;3.77;;;3.33;;
4268;SDS011;2148;48.554;7.834;2024-03-02T05:32:25;3.87;;;3.57;;
4268;SDS011;2148;48.554;7.834;2024-03-02T05:34:50;4.40;;;4.00;;
4268;SDS011;2148;48.554;7.834;2024-03-02T05:37:16;4.97;;;4.00;;
4268;SDS011;2148;48.554;7.834;2024-03-02T05:39:41;5.67;;;4.43;;
4268;SDS011;2148;48.554;7.834;2024-03-02T05:42:08;4.60;;;4.20;;
4268;SDS011;2148;48.554;7.834;2024-03-02T05:44:33;5.90;;;4.37;;
4268;SDS011;2148;48.554;7.834;2024-03-02T05:46:59;7.43;;;4.67;;
4268;SDS011;2148;48.554;7.834;2024-03-02T05:49:24;4.97;;;4.03;;
4268;SDS011;2148;48.554;7.834;2024-03-02T05:51:49;4.60;;;3.90;;
4268;SDS011;2148;48.554;7.834;2024-03-02T05:54:15;3.50;;;3.20;;
4268;SDS011;2148;48.554;7.834;2024-03-02T05:56:40;4.37;;;3.97;;
4268;SDS011;2148;48.554;7.834;2024-03-02T05:59:05;4.80;;;4.03;;
4268;SDS011;2148;48.554;7.834;2024-03-02T06:01:44;4.10;;;3.70;;
4268;SDS011;2148;48.554;7.834;2024-03-02T06:04:12;4.13;;;3.53;;
4268;SDS011;2148;48.554;7.834;2024-03-02T06:06:37;4.30;;;3.90;;
4268;SDS011;2148;48.554;7.834;2024-03-02T06:09:03;4.63;;;4.20;;
4268;SDS011;2148;48.554;7.834;2024-03-02T06:11:39;4.20;;;3.80;;
4268;SDS011;2148;48.554;7.834;2024-03-02T06:14:05;5.03;;;4.53;;
4268;SDS011;2148;48.554;7.834;2024-03-02T06:16:32;4.80;;;4.40;;
4268;SDS011;2148;48.554;7.834;2024-03-02T06:18:57;5.07;;;4.57;;
4268;SDS011;2148;48.554;7.834;2024-03-02T06:21:23;4.50;;;4.00;;
4268;SDS011;2148;48.554;7.834;2024-03-02T06:23:49;4.67;;;4.17;;
4268;SDS011;2148;48.554;7.834;2024-03-02T06:26:14;4.77;;;3.87;;
4268;SDS011;2148;48.554;7.834;2024-03-02T06:28:39;4.70;;;4.30;;
4268;SDS011;2148;48.554;7.834;2024-03-02T06:31:05;6.17;;;4.60;;
4268;SDS011;2148;48.554;7.834;2024-03-02T06:33:30;6.87;;;4.93;;
4268;SDS011;2148;48.554;7.834;2024-03-02T06:35:55;5.43;;;4.60;;
4268;SDS011;2148;48.554;7.834;2024-03-02T06:38:20;5.03;;;4.53;;
4268;SDS011;2148;48.554;7.834;2024-03-02T06:40:45;5.97;;;5.43;;
4268;SDS011;2148;48.554;7.834;2024-03-02T06:43:11;7.93;;;7.07;;
4268;SDS011;2148;48.554;7.834;2024-03-02T06:45:36;7.60;;;6.40;;
4268;SDS011;2148;48.554;7.834;2024-03-02T06:48:01;8.07;;;6.87;;
4268;SDS011;2148;48.554;7.834;2024-03-02T06:50:27;7.83;;;5.00;;
4268;SDS011;2148;48.554;7.834;2024-03-02T06:52:52;5.67;;;5.17;;
4268;SDS011;2148;48.554;7.834;2024-03-02T06:55:17;6.00;;;5.40;;
4268;SDS011;2148;48.554;7.834;2024-03-02T06:57:43;5.63;;;5.00;;
4268;SDS011;2148;48.554;7.834;2024-03-02T07:00:08;8.73;;;6.10;;
4268;SDS011;2148;48.554;7.834;2024-03-02T07:02:34;8.33;;;6.13;;
4268;SDS011;2148;48.554;7.834;2024-03-02T07:05:01;4.80;;;4.30;;
4268;SDS011;2148;48.554;7.834;2024-03-02T07:07:26;5.47;;;4.90;;
4268;SDS011;2148;48.554;7.834;2024-03-02T07:09:52;4.57;;;3.93;;
4268;SDS011;2148;48.554;7.834;2024-03-02T07:12:17;4.60;;;4.10;;
4268;SDS011;2148;48.554;7.834;2024-03-02T07:14:42;4.63;;;4.23;;
4268;SDS011;2148;48.554;7.834;2024-03-02T07:17:26;5.03;;;4.10;;
4268;SDS011;2148;48.554;7.834;2024-03-02T07:19:51;4.67;;;4.23;;
4268;SDS011;2148;48.554;7.834;2024-03-02T07:22:16;4.50;;;3.93;;
4268;SDS011;2148;48.554;7.834;2024-03-02T07:24:42;5.10;;;4.60;;
4268;SDS011;2148;48.554;7.834;2024-03-02T07:27:08;6.33;;;5.17;;
4268;SDS011;2148;48.554;7.834;2024-03-02T07:29:34;6.57;;;5.70;;
4268;SDS011;2148;48.554;7.834;2024-03-02T07:31:59;5.57;;;4.97;;
4268;SDS011;2148;48.554;7.834;2024-03-02T07:34:24;7.67;;;6.00;;
4268;SDS011;2148;48.554;7.834;2024-03-02T07:36:49;5.97;;;5.40;;
4268;SDS011;2148;48.554;7.834;2024-03-02T07:39:15;5.47;;;4.97;;
4268;SDS011;2148;48.554;7.834;2024-03-02T07:41:41;5.40;;;4.90;;
4268;SDS011;2148;48.554;7.834;2024-03-02T07:44:06;5.60;;;4.87;;
4268;SDS011;2148;48.554;7.834;2024-03-02T07:46:31;6.20;;;5.60;;
4268;SDS011;2148;48.554;7.834;2024-03-02T07:48:57;6.80;;;6.17;;
4268;SDS011;2148;48.554;7.834;2024-03-02T07:51:22;5.20;;;4.70;;
4268;SDS011;2148;48.554;7.834;2024-03-02T07:53:47;5.57;;;4.50;;
4268;SDS011;2148;48.554;7.834;2024-03-02T07:56:12;4.73;;;4.27;;
4268;SDS011;2148;48.554;7.834;2024-03-02T07:58:38;4.47;;;4.07;;
4268;SDS011;2148;48.554;7.834;2024-03-02T08:01:03;5.07;;;4.30;;
4268;SDS011;2148;48.554;7.834;2024-03-02T08:03:28;5.03;;;4.40;;
4268;SDS011;2148;48.554;7.834;2024-03-02T08:05:54;5.53;;;4.80;;
4268;SDS011;2148;48.554;7.834;2024-03-02T08:08:19;4.70;;;4.30;;
4268;SDS011;2148;48.554;7.834;2024-03-02T08:10:44;5.03;;;4.40;;
4268;SDS011;2148;48.554;7.834;2024-03-02T08:13:10;5.57;;;5.00;;
4268;SDS011;2148;48.554;7.834;2024-03-02T08:15:35;6.27;;;5.53;;
4268;SDS011;2148;48.554;7.834;2024-03-02T08:18:00;6.67;;;5.97;;
4268;SDS011;2148;48.554;7.834;2024-03-02T08:20:25;7.37;;;5.97;;
4268;SDS011;2148;48.554;7.834;2024-03-02T08:22:51;5.53;;;5.00;;
4268;SDS011;2148;48.554;7.834;2024-03-02T08:25:16;6.23;;;5.63;;
4268;SDS011;2148;48.554;7.834;2024-03-02T08:27:41;6.77;;;5.27;;
4268;SDS011;2148;48.554;7.834;2024-03-02T08:30:07;6.93;;;5.87;;
4268;SDS011;2148;48.554;7.834;2024-03-02T08:32:35;10.43;;;6.60;;
4268;SDS011;2148;48.554;7.834;2024-03-02T08:35:00;7.40;;;6.13;;
4268;SDS011;2148;48.554;7.834;2024-03-02T08:37:26;7.77;;;6.57;;
4268;SDS011;2148;48.554;7.834;2024-03-02T08:39:51;6.90;;;6.20;;
4268;SDS011;2148;48.554;7.834;2024-03-02T08:42:16;8.10;;;7.30;;
4268;SDS011;2148;48.554;7.834;2024-03-02T08:44:42;11.83;;;7.77;;
4268;SDS011;2148;48.554;7.834;2024-03-02T08:47:07;8.90;;;8.00;;
4268;SDS011;2148;48.554;7.834;2024-03-02T08:49:33;8.03;;;6.57;;
4268;SDS011;2148;48.554;7.834;2024-03-02T08:51:58;7.03;;;6.27;;
4268;SDS011;2148;48.554;7.834;2024-03-02T08:54:23;5.97;;;5.37;;
4268;SDS011;2148;48.554;7.834;2024-03-02T08:56:49;7.37;;;6.63;;
4268;SDS011;2148;48.554;7.834;2024-03-02T08:59:15;6.50;;;5.77;;
4268;SDS011;2148;48.554;7.834;2024-03-02T09:01:40;7.87;;;6.17;;
4268;SDS011;2148;48.554;7.834;2024-03-02T09:04:06;12.00;;;6.93;;
4268;SDS011;2148;48.554;7.834;2024-03-02T09:06:33;6.90;;;5.00;;
4268;SDS011;2148;48.554;7.834;2024-03-02T09:08:59;11.67;;;6.43;;
4268;SDS011;2148;48.554;7.834;2024-03-02T09:11:24;7.53;;;5.37;;
4268;SDS011;2148;48.554;7.834;2024-03-02T09:13:50;6.50;;;5.17;;
4268;SDS011;2148;48.554;7.834;2024-03-02T09:16:15;4.97;;;4.47;;
4268;SDS011;2148;48.554;7.834;2024-03-02T09:18:40;6.87;;;5.57;;
4268;SDS011;2148;48.554;7.834;2024-03-02T09:21:05;6.07;;;5.10;;
4268;SDS011;2148;48.554;7.834;2024-03-02T09:23:31;6.23;;;5.63;;
4268;SDS011;2148;48.554;7.834;2024-03-02T09:25:57;6.27;;;5.67;;
4268;SDS011;2148;48.554;7.834;2024-03-02T09:28:22;6.30;;;5.20;;
4268;SDS011;2148;48.554;7.834;2024-03-02T09:30:47;5.93;;;5.37;;
4268;SDS011;2148;48.554;7.834;2024-03-02T09:33:12;6.13;;;5.40;;
4268;SDS011;2148;48.554;7.834;2024-03-02T09:35:37;6.63;;;6.00;;
4268;SDS011;2148;48.554;7.834;2024-03-02T09:38:03;6.53;;;5.53;;
4268;SDS011;2148;48.554;7.834;2024-03-02T09:40:28;5.53;;;4.70;;
4268;SDS011;2148;48.554;7.834;2024-03-02T09:42:54;5.30;;;4.47;;
4268;SDS011;2148;48.554;7.834;2024-03-02T09:45:24;4.67;;;4.13;;
4268;SDS011;2148;48.554;7.834;2024-03-02T09:47:50;5.07;;;4.57;;
4268;SDS011;2148;48.554;7.834;2024-03-02T09:50:15;4.80;;;4.37;;
4268;SDS011;2148;48.554;7.834;2024-03-02T09:52:44;4.93;;;4.13;;
4268;SDS011;2148;48.554;7.834;2024-03-02T09:55:13;4.57;;;3.90;;
4268;SDS011;2148;48.554;7.834;2024-03-02T09:57:38;4.10;;;3.77;;
4268;SDS011;2148;48.554;7.834;2024-03-02T10:00:07;5.17;;;4.67;;
4268;SDS011;2148;48.554;7.834;2024-03-02T10:02:33;5.63;;;4.73;;
4268;SDS011;2148;48.554;7.834;2024-03-02T10:04:58;4.87;;;4.37;;
4268;SDS011;2148;48.554;7.834;2024-03-02T10:07:23;8.37;;;5.10;;
4268;SDS011;2148;48.554;7.834;2024-03-02T10:09:48;4.53;;;4.10;;
4268;SDS011;2148;48.554;7.834;2024-03-02T10:12:15;5.77;;;4.40;;
4268;SDS011;2148;48.554;7.834;2024-03-02T10:14:41;4.93;;;3.90;;
4268;SDS011;2148;48.554;7.834;2024-03-02T10:17:10;5.77;;;4.00;;
4268;SDS011;2148;48.554;7.834;2024-03-02T10:19:37;4.00;;;3.60;;
4268;SDS011;2148;48.554;7.834;2024-03-02T10:22:03;4.47;;;4.07;;
4268;SDS011;2148;48.554;7.834;2024-03-02T10:24:41;4.40;;;3.50;;
4268;SDS011;2148;48.554;7.834;2024-03-02T10:27:08;4.20;;;3.53;;
4268;SDS011;2148;48.554;7.834;2024-03-02T10:29:36;5.77;;;4.97;;
4268;SDS011;2148;48.554;7.834;2024-03-02T10:32:02;5.60;;;3.90;;
4268;SDS011;2148;48.554;7.834;2024-03-02T10:34:28;4.10;;;3.70;;
4268;SDS011;2148;48.554;7.834;2024-03-02T10:36:53;4.00;;;3.40;;
4268;SDS011;2148;48.554;7.834;2024-03-02T10:39:19;5.97;;;4.97;;
4268;SDS011;2148;48.554;7.834;2024-03-02T10:41:46;4.83;;;4.23;;
4268;SDS011;2148;48.554;7.834;2024-03-02T10:44:14;4.17;;;3.53;;
4268;SDS011;2148;48.554;7.834;2024-03-02T10:46:40;4.27;;;3.87;;
4268;SDS011;2148;48.554;7.834;2024-03-02T10:49:05;4.50;;;3.70;;
4268;SDS011;2148;48.554;7.834;2024-03-02T10:51:31;3.87;;;2.90;;
4268;SDS011;2148;48.554;7.834;2024-03-02T10:53:58;4.23;;;3.20;;
4268;SDS011;2148;48.554;7.834;2024-03-02T10:56:29;3.33;;;3.03;;
4268;SDS011;2148;48.554;7.834;2024-03-02T10:59:02;2.77;;;2.57;;
4268;SDS011;2148;48.554;7.834;2024-03-02T11:01:29;2.90;;;2.60;;
4268;SDS011;2148;48.554;7.834;2024-03-02T11:03:56;3.73;;;2.80;;
4268;SDS011;2148;48.554;7.834;2024-03-02T11:06:22;2.67;;;2.47;;
4268;SDS011;2148;48.554;7.834;2024-03-02T11:08:48;2.37;;;2.00;;
4268;SDS011;2148;48.554;7.834;2024-03-02T11:11:15;1.80;;;1.70;;
4268;SDS011;2148;48.554;7.834;2024-03-02T11:13:49;1.80;;;1.63;;
4268;SDS011;2148;48.554;7.834;2024-03-02T11:16:19;1.50;;;1.40;;
4268;SDS011;2148;48.554;7.834;2024-03-02T11:18:51;2.20;;;1.60;;
4268;SDS011;2148;48.554;7.834;2024-03-02T11:21:17;1.97;;;1.87;;
4268;SDS011;2148;48.554;7.834;2024-03-02T11:23:42;1.43;;;1.33;;
4268;SDS011;2148;48.554;7.834;2024-03-02T11:26:17;2.10;;;1.80;;
4268;SDS011;2148;48.554;7.834;2024-03-02T11:28:46;2.37;;;1.60;;
4268;SDS011;2148;48.554;7.834;2024-03-02T11:31:11;1.60;;;1.43;;
4268;SDS011;2148;48.554;7.834;2024-03-02T11:33:36;1.33;;;1.23;;
4268;SDS011;2148;48.554;7.834;2024-03-02T11:36:02;1.53;;;1.43;;
4268;SDS011;2148;48.554;7.834;2024-03-02T11:38:28;1.63;;;1.50;;
4268;SDS011;2148;48.554;7.834;2024-03-02T11:40:54;1.50;;;1.40;;
4268;SDS011;2148;48.554;7.834;2024-03-02T11:43:20;1.87;;;1.70;;
4268;SDS011;2148;48.554;7.834;2024-03-02T11:45:45;1.70;;;1.60;;
4268;SDS011;2148;48.554;7.834;2024-03-02T11:48:11;2.67;;;1.70;;
4268;SDS011;2148;48.554;7.834;2024-03-02T11:50:42;1.70;;;1.60;;
4268;SDS011;2148;48.554;7.834;2024-03-02T11:53:11;1.73;;;1.60;;
4268;SDS011;2148;48.554;7.834;2024-03-02T11:55:38;2.13;;;1.60;;
4268;SDS011;2148;48.554;7.834;2024-03-02T11:58:04;1.90;;;1.70;;
4268;SDS011;2148;48.554;7.834;2024-03-02T12:00:30;1.40;;;1.30;;
4268;SDS011;2148;48.554;7.834;2024-03-02T12:03:05;3.13;;;1.63;;
4268;SDS011;2148;48.554;7.834;2024-03-02T12:05:34;3.33;;;1.53;;
4268;SDS011;2148;48.554;7.834;2024-03-02T12:08:01;1.53;;;1.43;;
4268;SDS011;2148;48.554;7.834;2024-03-02T12:10:27;1.53;;;1.43;;
4268;SDS011;2148;48.554;7.834;2024-03-02T12:15:29;2.00;;;1.47;;
4268;SDS011;2148;48.554;7.834;2024-03-02T12:17:56;1.60;;;1.50;;
4268;SDS011;2148;48.554;7.834;2024-03-02T12:20:22;1.57;;;1.40;;
4268;SDS011;2148;48.554;7.834;2024-03-02T12:22:49;1.40;;;1.30;;
4268;SDS011;2148;48.554;7.834;2024-03-02T12:25:17;1.70;;;1.60;;
4268;SDS011;2148;48.554;7.834;2024-03-02T12:27:42;1.60;;;1.50;;
4268;SDS011;2148;48.554;7.834;2024-03-02T12:30:09;1.50;;;1.40;;
4268;SDS011;2148;48.554;7.834;2024-03-02T12:32:36;1.60;;;1.50;;
4268;SDS011;2148;48.554;7.834;2024-03-02T12:35:04;1.60;;;1.50;;
4268;SDS011;2148;48.554;7.834;2024-03-02T12:37:29;1.40;;;1.30;;
4268;SDS011;2148;48.554;7.834;2024-03-02T12:39:55;1.70;;;1.47;;
4268;SDS011;2148;48.554;7.834;2024-03-02T12:42:20;1.67;;;1.50;;
4268;SDS011;2148;48.554;7.834;2024-03-02T12:44:45;1.87;;;1.60;;
4268;SDS011;2148;48.554;7.834;2024-03-02T12:47:11;1.73;;;1.63;;
4268;SDS011;2148;48.554;7.834;2024-03-02T12:49:38;1.50;;;1.40;;
4268;SDS011;2148;48.554;7.834;2024-03-02T12:52:05;1.50;;;1.40;;
4268;SDS011;2148;48.554;7.834;2024-03-02T12:54:30;2.03;;;1.40;;
4268;SDS011;2148;48.554;7.834;2024-03-02T12:56:56;1.97;;;1.67;;
4268;SDS011;2148;48.554;7.834;2024-03-02T12:59:23;1.70;;;1.40;;
4268;SDS011;2148;48.554;7.834;2024-03-02T13:01:51;1.40;;;1.30;;
4268;SDS011;2148;48.554;7.834;2024-03-02T13:04:21;1.93;;;1.70;;
4268;SDS011;2148;48.554;7.834;2024-03-02T13:06:47;1.70;;;1.60;;
4268;SDS011;2148;48.554;7.834;2024-03-02T13:09:12;1.40;;;1.30;;
4268;SDS011;2148;48.554;7.834;2024-03-02T13:11:39;1.57;;;1.47;;
4268;SDS011;2148;48.554;7.834;2024-03-02T13:14:05;1.50;;;1.40;;
4268;SDS011;2148;48.554;7.834;2024-03-02T13:16:30;1.83;;;1.40;;
4268;SDS011;2148;48.554;7.834;2024-03-02T13:18:55;1.67;;;1.57;;
4268;SDS011;2148;48.554;7.834;2024-03-02T13:21:21;1.60;;;1.50;;
4268;SDS011;2148;48.554;7.834;2024-03-02T13:23:46;1.37;;;1.27;;
4268;SDS011;2148;48.554;7.834;2024-03-02T13:26:11;1.40;;;1.30;;
4268;SDS011;2148;48.554;7.834;2024-03-02T13:28:37;1.40;;;1.30;;
4268;SDS011;2148;48.554;7.834;2024-03-02T13:31:03;1.40;;;1.30;;
4268;SDS011;2148;48.554;7.834;2024-03-02T13:33:28;2.20;;;1.50;;
4268;SDS011;2148;48.554;7.834;2024-03-02T13:35:55;2.40;;;1.20;;
4268;SDS011;2148;48.554;7.834;2024-03-02T13:38:20;1.40;;;1.30;;
4268;SDS011;2148;48.554;7.834;2024-03-02T13:40:46;1.30;;;1.20;;
4268;SDS011;2148;48.554;7.834;2024-03-02T13:43:16;1.30;;;1.20;;
4268;SDS011;2148;48.554;7.834;2024-03-02T13:45:41;1.47;;;1.30;;
4268;SDS011;2148;48.554;7.834;2024-03-02T13:48:07;1.43;;;1.10;;
4268;SDS011;2148;48.554;7.834;2024-03-02T13:50:32;1.53;;;1.30;;
4268;SDS011;2148;48.554;7.834;2024-03-02T13:52:57;1.20;;;1.10;;
4268;SDS011;2148;48.554;7.834;2024-03-02T13:55:23;1.57;;;1.40;;
4268;SDS011;2148;48.554;7.834;2024-03-02T13:57:48;1.30;;;1.20;;
4268;SDS011;2148;48.554;7.834;2024-03-02T14:00:19;1.40;;;1.30;;
4268;SDS011;2148;48.554;7.834;2024-03-02T14:02:47;1.40;;;1.30;;
4268;SDS011;2148;48.554;7.834;2024-03-02T14:05:15;1.57;;;1.20;;
4268;SDS011;2148;48.554;7.834;2024-03-02T14:07:43;1.40;;;1.30;;
4268;SDS011;2148;48.554;7.834;2024-03-02T14:10:09;2.13;;;2.03;;
4268;SDS011;2148;48.554;7.834;2024-03-02T14:12:34;1.30;;;1.20;;
4268;SDS011;2148;48.554;7.834;2024-03-02T14:14:59;1.10;;;1.10;;
4268;SDS011;2148;48.554;7.834;2024-03-02T14:17:27;1.57;;;1.27;;
4268;SDS011;2148;48.554;7.834;2024-03-02T14:19:52;1.40;;;1.30;;
4268;SDS011;2148;48.554;7.834;2024-03-02T14:22:18;1.87;;;1.43;;
4268;SDS011;2148;48.554;7.834;2024-03-02T14:24:44;1.40;;;1.30;;
4268;SDS011;2148;48.554;7.834;2024-03-02T14:27:09;1.63;;;1.20;;
4268;SDS011;2148;48.554;7.834;2024-03-02T14:29:35;1.40;;;1.30;;
4268;SDS011;2148;48.554;7.834;2024-03-02T14:32:02;3.33;;;2.90;;
4268;SDS011;2148;48.554;7.834;2024-03-02T14:34:28;8.60;;;6.60;;
4268;SDS011;2148;48.554;7.834;2024-03-02T14:36:53;6.27;;;5.30;;
4268;SDS011;2148;48.554;7.834;2024-03-02T14:39:18;2.20;;;2.00;;
4268;SDS011;2148;48.554;7.834;2024-03-02T14:41:44;2.90;;;1.70;;
4268;SDS011;2148;48.554;7.834;2024-03-02T14:44:10;4.17;;;1.70;;
4268;SDS011;2148;48.554;7.834;2024-03-02T14:46:35;1.67;;;1.50;;
4268;SDS011;2148;48.554;7.834;2024-03-02T14:49:00;1.80;;;1.40;;
4268;SDS011;2148;48.554;7.834;2024-03-02T14:51:25;2.10;;;1.90;;
4268;SDS011;2148;48.554;7.834;2024-03-02T14:53:51;1.63;;;1.53;;
4268;SDS011;2148;48.554;7.834;2024-03-02T14:56:16;1.53;;;1.43;;
4268;SDS011;2148;48.554;7.834;2024-03-02T14:58:42;2.13;;;1.50;;
4268;SDS011;2148;48.554;7.834;2024-03-02T15:01:07;2.10;;;1.50;;
4268;SDS011;2148;48.554;7.834;2024-03-02T15:03:33;1.53;;;1.43;;
4268;SDS011;2148;48.554;7.834;2024-03-02T15:06:00;2.17;;;1.90;;
4268;SDS011;2148;48.554;7.834;2024-03-02T15:08:25;1.70;;;1.60;;
4268;SDS011;2148;48.554;7.834;2024-03-02T15:10:50;2.07;;;1.60;;